createdAt,value
2022-12-22T00:00:00.869Z,176.75
2022-12-22T00:02:48.383Z,176.93
2022-12-22T00:05:39.365Z,169.50
2022-12-22T00:08:26.258Z,175.50
2022-12-22T00:11:13.316Z,170.50
2022-12-22T00:14:01.372Z,188.52
2022-12-22T00:16:52.133Z,172.32
2022-12-22T00:19:38.311Z,191.15
2022-12-22T00:22:38.810Z,171.85
2022-12-22T00:25:25.425Z,174.60
2022-12-22T00:28:11.140Z,169.93
2022-12-22T00:30:57.299Z,175.02
2022-12-22T00:33:43.256Z,188.32
2022-12-22T00:36:31.009Z,175.00
2022-12-22T00:39:17.055Z,187.90
2022-12-22T00:42:03.806Z,197.52
2022-12-22T00:44:50.074Z,178.85
2022-12-22T00:47:47.213Z,191.18
2022-12-22T00:50:34.148Z,169.35
2022-12-22T00:53:21.157Z,187.77
2022-12-22T00:56:07.338Z,175.63
2022-12-22T00:58:53.875Z,173.93
2022-12-22T01:01:39.644Z,175.00
2022-12-22T01:04:29.342Z,158.65
2022-12-22T01:07:16.148Z,177.93
2022-12-22T01:10:05.910Z,163.48
2022-12-22T01:12:52.983Z,176.95
2022-12-22T01:15:39.627Z,161.85
2022-12-22T01:18:25.847Z,175.27
2022-12-22T01:21:12.204Z,200.18
2022-12-22T01:23:58.338Z,217.75
2022-12-22T01:26:44.654Z,190.00
2022-12-22T01:29:30.267Z,216.35
2022-12-22T01:32:16.548Z,196.70
2022-12-22T01:35:02.661Z,193.77
2022-12-22T01:37:48.945Z,236.60
2022-12-22T01:40:40.103Z,256.67
2022-12-22T01:43:40.400Z,248.65
2022-12-22T01:46:47.141Z,228.25
2022-12-22T01:49:53.840Z,267.77
2022-12-22T01:52:42.124Z,208.35
2022-12-22T01:55:31.021Z,206.60
2022-12-22T01:58:17.321Z,212.70
2022-12-22T02:01:03.545Z,234.05
2022-12-22T02:03:49.299Z,251.70
2022-12-22T02:06:59.770Z,263.70
2022-12-22T02:09:55.723Z,247.48
2022-12-22T02:12:52.167Z,231.13
2022-12-22T02:15:44.461Z,215.02
2022-12-22T02:18:35.372Z,192.93
2022-12-22T02:21:28.672Z,281.75
2022-12-22T02:27:20.884Z,204.32
2022-12-22T02:30:10.014Z,201.55
2022-12-22T02:33:03.592Z,228.48
2022-12-22T02:36:22.182Z,230.70
2022-12-22T02:39:24.620Z,192.52
2022-12-22T02:42:37.985Z,215.60
2022-12-22T02:45:30.330Z,236.13
2022-12-22T02:48:21.298Z,200.38
2022-12-22T02:51:24.772Z,162.70
2022-12-22T02:54:11.593Z,185.65
2022-12-22T02:56:58.613Z,195.57
2022-12-22T02:59:44.624Z,175.02
2022-12-22T03:02:31.484Z,186.98
2022-12-22T03:05:18.094Z,181.30
2022-12-22T03:08:08.306Z,184.02
2022-12-22T03:10:55.260Z,163.13
2022-12-22T03:13:41.183Z,146.90
2022-12-22T03:16:27.320Z,162.85
2022-12-22T03:19:13.201Z,160.50
2022-12-22T03:21:59.592Z,169.15
2022-12-22T03:24:45.211Z,139.23
2022-12-22T03:27:12.749Z,136.88
2022-12-22T03:29:39.853Z,147.98
2022-12-22T03:32:07.305Z,132.60
2022-12-22T03:34:34.524Z,149.95
2022-12-22T03:37:01.783Z,142.30
2022-12-22T03:39:28.943Z,150.38
2022-12-22T03:42:14.991Z,152.45
2022-12-22T03:45:01.101Z,138.73
2022-12-22T03:47:28.721Z,142.02
2022-12-22T03:49:55.898Z,148.05
2022-12-22T03:52:23.316Z,147.77
2022-12-22T03:54:50.464Z,152.32
2022-12-22T03:57:17.857Z,152.82
2022-12-22T03:59:44.987Z,156.52
2022-12-22T04:02:12.580Z,138.90
2022-12-22T04:04:39.768Z,140.80
2022-12-22T04:07:07.175Z,157.90
2022-12-22T04:09:34.429Z,147.52
2022-12-22T04:12:20.570Z,161.48
2022-12-22T04:14:47.736Z,153.02
2022-12-22T04:17:15.064Z,145.65
2022-12-22T04:19:42.235Z,143.80
2022-12-22T04:22:09.696Z,161.43
2022-12-22T04:24:36.809Z,147.80
2022-12-22T04:27:04.127Z,151.88
2022-12-22T04:29:31.255Z,156.35
2022-12-22T04:31:58.721Z,155.45
2022-12-22T04:34:25.958Z,155.07
2022-12-22T04:36:53.348Z,146.57
2022-12-22T04:39:20.470Z,149.50
2022-12-22T04:41:48.067Z,134.00
2022-12-22T04:44:15.393Z,154.07
2022-12-22T04:46:43.114Z,140.25
2022-12-22T04:49:10.275Z,144.40
2022-12-22T04:51:37.633Z,137.60
2022-12-22T04:54:04.815Z,141.30
2022-12-22T04:56:32.193Z,142.10
2022-12-22T04:58:59.327Z,143.52
2022-12-22T05:01:26.918Z,142.13
2022-12-22T05:03:54.389Z,140.10
2022-12-22T05:06:21.710Z,130.13
2022-12-22T05:08:48.748Z,144.18
2022-12-22T05:11:16.115Z,136.65
2022-12-22T05:13:43.356Z,138.57
2022-12-22T05:16:18.648Z,142.60
2022-12-22T05:18:46.413Z,123.78
2022-12-22T05:21:19.180Z,137.80
2022-12-22T05:23:46.821Z,138.25
2022-12-22T05:26:15.057Z,142.68
2022-12-22T05:28:42.885Z,149.73
2022-12-22T05:31:14.577Z,133.20
2022-12-22T05:33:41.954Z,130.48
2022-12-22T05:36:09.368Z,124.53
2022-12-22T05:38:36.710Z,124.90
2022-12-22T05:41:05.045Z,124.47
2022-12-22T05:43:35.891Z,128.13
2022-12-22T05:46:09.403Z,126.50
2022-12-22T05:48:39.444Z,129.15
2022-12-22T05:51:09.792Z,128.20
2022-12-22T05:53:37.578Z,121.35
2022-12-22T05:56:05.917Z,135.18
2022-12-22T05:58:33.677Z,127.13
2022-12-22T06:01:01.585Z,109.97
2022-12-22T06:03:30.794Z,126.93
2022-12-22T06:05:59.573Z,117.10
2022-12-22T06:08:27.765Z,123.88
2022-12-22T06:10:56.595Z,116.25
2022-12-22T06:13:24.759Z,133.60
2022-12-22T06:15:52.395Z,128.48
2022-12-22T06:18:19.626Z,121.40
2022-12-22T06:20:47.541Z,114.22
2022-12-22T06:23:14.937Z,119.10
2022-12-22T06:25:42.432Z,117.70
2022-12-22T06:28:09.702Z,117.82
2022-12-22T06:30:37.009Z,105.65
2022-12-22T06:33:06.263Z,108.38
2022-12-22T06:35:38.112Z,103.03
2022-12-22T06:38:05.562Z,113.82
2022-12-22T06:40:33.499Z,117.57
2022-12-22T06:43:12.418Z,111.40
2022-12-22T06:45:42.438Z,111.63
2022-12-22T06:48:11.331Z,110.97
2022-12-22T06:50:38.907Z,110.15
2022-12-22T06:53:08.377Z,113.97
2022-12-22T06:55:37.139Z,115.30
2022-12-22T06:58:05.315Z,96.95
2022-12-22T07:00:33.596Z,105.15
2022-12-22T07:03:01.329Z,97.78
2022-12-22T07:05:32.017Z,103.25
2022-12-22T07:08:05.935Z,100.82
2022-12-22T07:10:54.192Z,93.90
2022-12-22T07:13:21.739Z,101.85
2022-12-22T07:15:55.437Z,94.53
2022-12-22T07:18:27.416Z,88.07
2022-12-22T07:20:55.325Z,91.63
2022-12-22T07:23:23.171Z,92.13
2022-12-22T07:25:50.878Z,90.47
2022-12-22T07:28:20.967Z,88.03
2022-12-22T07:30:50.309Z,89.65
2022-12-22T07:33:17.718Z,85.97
2022-12-22T07:35:45.449Z,87.50
2022-12-22T07:38:13.006Z,80.40
2022-12-22T07:40:42.476Z,77.63
2022-12-22T07:43:10.516Z,88.90
2022-12-22T07:45:38.465Z,84.15
2022-12-22T07:48:26.099Z,85.53
2022-12-22T07:50:54.638Z,102.93
2022-12-22T07:53:21.785Z,100.65
2022-12-22T07:55:49.176Z,99.47
2022-12-22T07:58:16.604Z,103.22
2022-12-22T08:00:44.217Z,105.60
2022-12-22T08:03:11.399Z,96.25
2022-12-22T08:05:39.156Z,105.13
2022-12-22T08:08:06.543Z,94.95
2022-12-22T08:10:34.164Z,100.05
2022-12-22T08:13:01.396Z,93.60
2022-12-22T08:15:28.993Z,89.25
2022-12-22T08:17:56.877Z,91.38
2022-12-22T08:20:24.577Z,83.18
2022-12-22T08:22:51.734Z,76.15
2022-12-22T08:25:19.338Z,81.13
2022-12-22T08:27:51.543Z,77.22
2022-12-22T08:30:19.205Z,81.00
2022-12-22T08:32:49.343Z,80.15
2022-12-22T08:35:17.161Z,91.13
2022-12-22T08:37:45.356Z,79.13
2022-12-22T08:40:16.544Z,82.35
2022-12-22T08:42:44.415Z,95.15
2022-12-22T08:45:12.493Z,90.60
2022-12-22T08:47:40.327Z,85.43
2022-12-22T08:50:08.559Z,79.90
2022-12-22T08:52:36.088Z,83.45
2022-12-22T08:55:04.176Z,77.00
2022-12-22T08:57:31.416Z,85.60
2022-12-22T08:59:59.647Z,74.28
2022-12-22T09:02:27.090Z,67.95
2022-12-22T09:04:54.950Z,74.95
2022-12-22T09:07:22.211Z,80.60
2022-12-22T09:09:49.822Z,80.85
2022-12-22T09:12:17.547Z,80.57
2022-12-22T09:14:45.123Z,76.65
2022-12-22T09:17:12.361Z,74.40
2022-12-22T09:19:40.053Z,65.78
2022-12-22T09:22:07.505Z,63.90
2022-12-22T09:24:35.313Z,73.80
2022-12-22T09:27:03.700Z,71.28
2022-12-22T09:29:31.406Z,70.47
2022-12-22T09:31:58.962Z,74.32
2022-12-22T09:34:27.689Z,57.25
2022-12-22T09:36:55.695Z,65.97
2022-12-22T09:39:28.852Z,64.68
2022-12-22T09:41:58.032Z,58.97
2022-12-22T09:44:33.072Z,62.45
2022-12-22T09:47:04.285Z,53.63
2022-12-22T09:49:32.194Z,59.90
2022-12-22T09:52:01.402Z,57.83
2022-12-22T09:54:30.321Z,57.63
2022-12-22T09:56:58.389Z,59.30
2022-12-22T09:59:28.610Z,57.40
2022-12-22T10:02:02.290Z,58.45
2022-12-22T10:05:07.703Z,56.85
2022-12-22T10:07:37.381Z,58.55
2022-12-22T10:10:28.382Z,53.08
2022-12-22T10:13:00.874Z,52.95
2022-12-22T10:15:36.650Z,62.40
2022-12-22T10:18:24.227Z,55.20
2022-12-22T10:21:11.933Z,56.88
2022-12-22T10:23:45.632Z,62.33
2022-12-22T10:26:28.061Z,54.40
2022-12-22T10:29:15.748Z,55.42
2022-12-22T10:32:03.199Z,59.47
2022-12-22T10:34:31.267Z,59.05
2022-12-22T10:37:04.172Z,55.97
2022-12-22T10:39:34.436Z,54.53
2022-12-22T10:42:10.146Z,54.75
2022-12-22T10:44:38.325Z,62.63
2022-12-22T10:47:18.239Z,54.28
2022-12-22T10:49:47.802Z,53.35
2022-12-22T10:52:16.614Z,55.28
2022-12-22T10:54:45.172Z,50.53
2022-12-22T10:57:16.729Z,54.30
2022-12-22T11:00:03.324Z,54.42
2022-12-22T11:02:40.380Z,54.13
2022-12-22T11:05:12.524Z,50.75
2022-12-22T11:07:43.047Z,53.38
2022-12-22T11:10:32.320Z,47.47
2022-12-22T11:13:22.948Z,51.55
2022-12-22T11:16:13.659Z,52.75
2022-12-22T11:19:12.581Z,49.45
2022-12-22T11:22:06.411Z,55.38
2022-12-22T11:24:42.603Z,51.75
2022-12-22T11:27:52.196Z,57.85
2022-12-22T11:30:24.292Z,60.47
2022-12-22T11:33:23.220Z,60.72
2022-12-22T11:35:56.662Z,57.42
2022-12-22T11:39:01.483Z,61.00
2022-12-22T11:41:34.279Z,59.88
2022-12-22T11:44:39.916Z,58.78
2022-12-22T11:47:19.373Z,52.50
2022-12-22T11:50:00.840Z,54.72
2022-12-22T11:53:19.207Z,66.22
2022-12-22T11:56:12.682Z,63.92
2022-12-22T11:58:58.806Z,62.40
2022-12-22T12:01:51.131Z,65.07
2022-12-22T12:04:37.305Z,56.10
2022-12-22T12:07:28.635Z,63.80
2022-12-22T12:10:20.433Z,60.90
2022-12-22T12:13:10.717Z,62.30
2022-12-22T12:15:56.816Z,60.22
2022-12-22T12:18:46.755Z,62.15
2022-12-22T12:22:02.649Z,59.28
2022-12-22T12:24:48.654Z,61.17
2022-12-22T12:27:40.687Z,60.15
2022-12-22T12:30:37.915Z,62.83
2022-12-22T12:33:24.823Z,68.78
2022-12-22T12:36:05.555Z,71.95
2022-12-22T12:39:11.546Z,64.18
2022-12-22T12:41:50.266Z,58.83
2022-12-22T12:44:20.232Z,63.22
2022-12-22T12:47:06.337Z,65.28
2022-12-22T12:49:34.222Z,64.90
2022-12-22T12:52:06.313Z,65.15
2022-12-22T12:54:37.167Z,65.93
2022-12-22T12:57:07.509Z,63.33
2022-12-22T12:59:40.996Z,65.95
2022-12-22T13:02:27.570Z,61.28
2022-12-22T13:05:08.266Z,57.92
2022-12-22T13:08:14.712Z,61.17
2022-12-22T13:10:45.924Z,62.20
2022-12-22T13:13:22.410Z,62.33
2022-12-22T13:16:12.716Z,63.53
2022-12-22T13:18:49.884Z,50.83
2022-12-22T13:24:26.275Z,47.42
2022-12-22T13:26:56.005Z,51.13
2022-12-22T13:29:27.475Z,49.45
2022-12-22T13:31:59.985Z,46.45
2022-12-22T13:35:20.265Z,47.57
2022-12-22T13:37:40.459Z,50.92
2022-12-22T13:40:31.457Z,43.72
2022-12-22T13:43:14.541Z,52.50
2022-12-22T13:45:54.810Z,55.20
2022-12-22T13:48:26.179Z,56.58
2022-12-22T13:50:55.645Z,65.05
2022-12-22T13:53:58.732Z,58.42
2022-12-22T13:56:18.378Z,64.43
2022-12-22T13:58:47.731Z,69.60
2022-12-22T14:01:18.262Z,63.78
2022-12-22T14:04:01.426Z,64.60
2022-12-22T14:09:11.124Z,63.53
2022-12-22T14:11:38.584Z,67.82
2022-12-22T14:14:09.107Z,65.78
2022-12-22T14:16:43.331Z,66.43
2022-12-22T14:19:15.679Z,58.35
2022-12-22T14:21:45.144Z,56.60
2022-12-22T14:24:22.437Z,62.30
2022-12-22T14:26:50.391Z,60.63
2022-12-22T14:29:20.486Z,66.80
2022-12-22T14:32:02.989Z,67.60
2022-12-22T14:34:32.917Z,70.40
2022-12-22T14:37:01.566Z,73.95
2022-12-22T14:39:32.125Z,78.93
2022-12-22T14:42:12.214Z,72.65
2022-12-22T14:44:44.645Z,73.35
2022-12-22T14:47:12.376Z,62.43
2022-12-22T14:50:12.253Z,66.60
2022-12-22T14:53:01.537Z,68.90
2022-12-22T14:55:32.451Z,57.72
2022-12-22T14:58:04.601Z,63.97
2022-12-22T15:00:41.672Z,65.30
2022-12-22T15:03:32.228Z,72.63
2022-12-22T15:06:28.496Z,74.10
2022-12-22T15:09:06.731Z,66.20
2022-12-22T15:11:36.651Z,74.03
2022-12-22T15:14:04.897Z,68.25
2022-12-22T15:16:32.567Z,67.75
2022-12-22T15:18:59.771Z,60.60
2022-12-22T15:21:27.424Z,64.20
2022-12-22T15:23:54.669Z,63.88
2022-12-22T15:26:22.059Z,63.80
2022-12-22T15:28:50.147Z,65.03
2022-12-22T15:31:18.435Z,61.28
2022-12-22T15:33:46.072Z,68.72
2022-12-22T15:36:14.714Z,66.63
2022-12-22T15:38:42.536Z,62.95
2022-12-22T15:41:10.137Z,60.42
2022-12-22T15:43:57.257Z,62.08
2022-12-22T15:46:25.360Z,66.35
2022-12-22T15:48:52.964Z,65.25
2022-12-22T15:51:26.560Z,63.25
2022-12-22T15:53:55.138Z,64.05
2022-12-22T15:56:24.805Z,64.15
2022-12-22T15:58:52.658Z,72.78
2022-12-22T16:01:20.371Z,60.08
2022-12-22T16:03:47.984Z,58.88
2022-12-22T16:06:17.807Z,64.15
2022-12-22T16:08:50.351Z,71.50
2022-12-22T16:11:18.960Z,64.30
2022-12-22T16:13:47.090Z,69.68
2022-12-22T16:16:14.835Z,63.38
2022-12-22T16:18:42.077Z,63.20
2022-12-22T16:21:20.463Z,65.70
2022-12-22T16:23:49.544Z,63.10
2022-12-22T16:26:20.356Z,62.80
2022-12-22T16:28:47.790Z,63.33
2022-12-22T16:31:21.476Z,62.88
2022-12-22T16:33:48.905Z,59.50
2022-12-22T16:36:16.315Z,64.47
2022-12-22T16:38:46.040Z,66.93
2022-12-22T16:41:22.979Z,67.55
2022-12-22T16:43:50.317Z,60.35
2022-12-22T16:46:20.162Z,58.75
2022-12-22T16:48:54.636Z,56.70
2022-12-22T16:51:49.415Z,60.72
2022-12-22T16:54:16.813Z,62.15
2022-12-22T16:56:47.001Z,66.57
2022-12-22T16:59:14.563Z,64.35
2022-12-22T17:01:55.090Z,69.43
2022-12-22T17:04:26.168Z,62.00
2022-12-22T17:06:55.640Z,66.25
2022-12-22T17:09:44.558Z,63.97
2022-12-22T17:12:18.407Z,62.35
2022-12-22T17:14:46.814Z,62.55
2022-12-22T17:17:31.811Z,66.82
2022-12-22T17:20:01.528Z,61.95
2022-12-22T17:22:31.289Z,61.85
2022-12-22T17:25:01.160Z,65.40
2022-12-22T17:27:33.211Z,63.90
2022-12-22T17:30:03.697Z,65.55
2022-12-22T17:32:31.309Z,70.35
2022-12-22T17:34:58.567Z,64.57
2022-12-22T17:37:26.648Z,73.75
2022-12-22T17:39:59.553Z,66.05
2022-12-22T17:42:27.278Z,69.55
2022-12-22T17:44:54.467Z,67.15
2022-12-22T17:47:29.023Z,68.88
2022-12-22T17:49:58.874Z,69.80
2022-12-22T17:52:28.113Z,72.50
2022-12-22T17:54:55.716Z,75.60
2022-12-22T17:57:25.958Z,72.40
2022-12-22T17:59:53.244Z,70.35
2022-12-22T18:02:23.145Z,70.47
2022-12-22T18:04:50.727Z,67.75
2022-12-22T18:07:20.948Z,67.60
2022-12-22T18:09:49.021Z,73.85
2022-12-22T18:12:21.661Z,70.22
2022-12-22T18:14:49.582Z,64.20
2022-12-22T18:17:33.198Z,69.85
2022-12-22T18:20:02.682Z,71.53
2022-12-22T18:22:30.229Z,78.50
2022-12-22T18:25:01.616Z,76.82
2022-12-22T18:27:30.668Z,73.40
2022-12-22T18:29:57.947Z,83.10
2022-12-22T18:32:28.068Z,74.60
2022-12-22T18:34:55.839Z,73.63
2022-12-22T18:37:23.446Z,71.68
2022-12-22T18:39:50.790Z,65.10
2022-12-22T18:42:23.462Z,66.90
2022-12-22T18:44:51.320Z,64.43
2022-12-22T18:47:19.219Z,67.30
2022-12-22T18:49:46.681Z,64.22
2022-12-22T18:52:18.002Z,64.43
2022-12-22T18:54:45.615Z,69.32
2022-12-22T18:57:22.079Z,69.55
2022-12-22T18:59:49.722Z,63.22
2022-12-22T19:02:22.226Z,69.32
2022-12-22T19:04:50.915Z,62.88
2022-12-22T19:07:21.295Z,61.47
2022-12-22T19:09:49.401Z,65.43
2022-12-22T19:12:23.415Z,64.35
2022-12-22T19:14:52.943Z,63.10
2022-12-22T19:17:23.838Z,62.03
2022-12-22T19:19:51.025Z,74.10
2022-12-22T19:22:18.389Z,64.38
2022-12-22T19:24:45.796Z,64.28
2022-12-22T19:27:26.919Z,57.83
2022-12-22T19:30:02.704Z,57.58
2022-12-22T19:32:36.791Z,57.60
2022-12-22T19:35:04.614Z,56.55
2022-12-22T19:37:32.507Z,58.97
2022-12-22T19:40:00.222Z,60.25
2022-12-22T19:42:27.844Z,53.58
2022-12-22T19:44:55.214Z,58.30
2022-12-22T19:47:29.639Z,57.55
2022-12-22T19:49:57.080Z,55.97
2022-12-22T19:52:24.556Z,65.03
2022-12-22T19:54:51.813Z,56.17
2022-12-22T19:57:22.009Z,57.30
2022-12-22T19:59:50.423Z,55.67
2022-12-22T20:02:21.541Z,53.85
2022-12-22T20:04:49.771Z,54.10
2022-12-22T20:07:19.538Z,54.22
2022-12-22T20:09:47.409Z,65.68
2022-12-22T20:12:35.392Z,58.05
2022-12-22T20:15:14.359Z,52.25
2022-12-22T20:17:42.342Z,56.85
2022-12-22T20:20:17.319Z,48.70
2022-12-22T20:22:47.225Z,56.58
2022-12-22T20:25:18.112Z,51.92
2022-12-22T20:27:45.861Z,47.45
2022-12-22T20:30:24.276Z,51.13
2022-12-22T20:32:51.983Z,53.92
2022-12-22T20:35:19.193Z,51.95
2022-12-22T20:37:47.039Z,55.03
2022-12-22T20:40:34.792Z,54.08
2022-12-22T20:43:02.523Z,58.55
2022-12-22T20:45:31.039Z,58.05
2022-12-22T20:47:59.922Z,61.40
2022-12-22T20:50:29.990Z,51.35
2022-12-22T20:52:57.908Z,54.90
2022-12-22T20:55:27.567Z,50.92
2022-12-22T20:57:55.479Z,49.08
2022-12-22T21:00:27.714Z,49.35
2022-12-22T21:02:55.765Z,50.50
2022-12-22T21:05:23.361Z,52.33
2022-12-22T21:07:50.898Z,51.40
2022-12-22T21:10:23.141Z,52.22
2022-12-22T21:12:50.932Z,53.40
2022-12-22T21:15:20.575Z,46.17
2022-12-22T21:17:52.811Z,49.63
2022-12-22T21:20:26.227Z,48.00
2022-12-22T21:22:54.311Z,52.38
2022-12-22T21:25:23.171Z,49.08
2022-12-22T21:27:54.743Z,45.72
2022-12-22T21:30:30.926Z,46.88
2022-12-22T21:32:59.795Z,45.40
2022-12-22T21:35:36.166Z,47.28
2022-12-22T21:38:04.889Z,54.22
2022-12-22T21:40:33.114Z,48.85
2022-12-22T21:43:00.982Z,48.78
2022-12-22T21:45:30.639Z,50.50
2022-12-22T21:48:02.376Z,48.28
2022-12-22T21:50:32.269Z,48.50
2022-12-22T21:53:00.140Z,46.72
2022-12-22T21:55:30.077Z,47.00
2022-12-22T21:57:58.825Z,49.85
2022-12-22T22:00:28.523Z,52.95
2022-12-22T22:02:57.560Z,58.55
2022-12-22T22:05:39.745Z,51.05
2022-12-22T22:08:09.051Z,52.67
2022-12-22T22:10:38.843Z,48.47
2022-12-22T22:13:07.210Z,50.65
2022-12-22T22:15:35.613Z,58.25
2022-12-22T22:18:07.195Z,51.38
2022-12-22T22:20:35.172Z,59.15
2022-12-22T22:23:02.825Z,52.28
2022-12-22T22:25:30.418Z,53.92
2022-12-22T22:27:59.960Z,54.40
2022-12-22T22:30:27.707Z,52.30
2022-12-22T22:32:56.418Z,59.50
2022-12-22T22:35:25.144Z,60.28
2022-12-22T22:37:53.013Z,62.72
2022-12-22T22:40:22.863Z,59.08
2022-12-22T22:42:50.594Z,57.03
2022-12-22T22:45:23.947Z,62.72
2022-12-22T22:47:53.067Z,61.30
2022-12-22T22:50:21.641Z,58.88
2022-12-22T22:52:49.491Z,66.03
2022-12-22T22:55:16.751Z,58.60
2022-12-22T22:57:44.520Z,57.20
2022-12-22T23:00:14.442Z,55.67
2022-12-22T23:02:42.876Z,57.95
2022-12-22T23:05:15.408Z,58.70
2022-12-22T23:07:46.605Z,51.63
2022-12-22T23:10:14.415Z,53.47
2022-12-22T23:12:42.541Z,54.92
2022-12-22T23:15:10.066Z,55.58
2022-12-22T23:17:37.821Z,61.22
2022-12-22T23:20:05.727Z,60.50
2022-12-22T23:22:33.697Z,55.00
2022-12-22T23:25:01.115Z,53.55
2022-12-22T23:27:28.681Z,60.75
2022-12-22T23:29:56.764Z,60.03
2022-12-22T23:32:25.152Z,57.47
2022-12-22T23:34:52.647Z,53.83
2022-12-22T23:37:20.373Z,61.17
2022-12-22T23:39:47.674Z,58.75
2022-12-22T23:42:15.361Z,57.90
2022-12-22T23:44:42.470Z,54.15
2022-12-22T23:47:09.999Z,59.08
2022-12-22T23:49:37.308Z,63.35
2022-12-22T23:52:05.015Z,55.40
2022-12-22T23:54:32.302Z,55.95
2022-12-22T23:57:00.000Z,58.28
2022-12-22T23:59:27.466Z,53.60
